Time;durP1;ratioP1;P1;durP2;ratioP2;P2;SDS_P1;SDS_P2;PMS_P1;PMS_P2;Temp;Humidity;BMP_temperature;BMP_pressure;BME280_temperature;BME280_humidity;BME280_pressure;Samples;Min_cycle;Max_cycle;Signal;HPM_P1;HPM_P2
2023/05/13 00:01:54;;;;;;;;;;;;;;;15.35;93.50;100016.28;5084922;28;20439;-60
2023/05/13 00:04:19;;;;;;;;;;;;;;;15.56;93.60;100050.06;5091872;28;19916;-60
2023/05/13 00:06:44;;;;;;;;;;;;;;;15.55;93.29;100048.31;5091069;28;20386;-60
2023/05/13 00:09:10;;;;;;;;;;;;;;;15.52;93.97;100053.84;5092323;28;19920;-60
2023/05/13 00:11:35;;;;;;;;;;;;;;;15.46;93.74;100058.66;5088039;28;19987;-60
2023/05/13 00:14:01;;;;;;;;;;;;;;;15.48;94.12;100057.66;5086840;28;19923;-60
2023/05/13 00:16:27;;;;;;;;;;;;;;;15.46;94.73;100054.16;5091895;28;19993;-60
2023/05/13 00:18:53;;;;;;;;;;;;;;;15.46;93.56;100054.16;5090504;28;19916;-60
2023/05/13 00:21:18;;;;;;;;;;;;;;;15.29;93.98;100038.03;5088446;28;19931;-60
2023/05/13 00:23:43;;;;;;;;;;;;;;;15.49;93.26;100053.13;5091905;28;19919;-60
2023/05/13 00:26:09;;;;;;;;;;;;;;;15.51;94.14;100053.94;5090730;28;19923;-60
2023/05/13 00:28:34;;;;;;;;;;;;;;;15.42;93.34;100047.22;5092038;28;19928;-60
2023/05/13 00:30:59;;;;;;;;;;;;;;;15.42;93.13;100051.75;5092075;28;19912;-60
2023/05/13 00:33:24;;;;;;;;;;;;;;;15.39;93.47;100051.88;5091182;28;20307;-60
2023/05/13 00:35:50;;;;;;;;;;;;;;;15.39;94.33;100050.06;5091193;28;19965;-60
2023/05/13 00:38:16;;;;;;;;;;;;;;;15.38;93.03;100045.63;5090772;28;20360;-60
2023/05/13 00:40:43;;;;;;;;;;;;;;;15.39;93.55;100047.38;5091571;28;19920;-60
2023/05/13 00:43:08;;;;;;;;;;;;;;;15.34;94.21;100051.19;5090857;28;20398;-60
2023/05/13 00:45:35;;;;;;;;;;;;;;;15.33;93.42;100047.69;5090984;28;19920;-60
2023/05/13 00:48:00;;;;;;;;;;;;;;;15.28;94.95;100044.38;5078395;28;19913;-60
2023/05/13 00:50:26;;;;;;;;;;;;;;;15.24;94.77;100047.25;5081515;28;19923;-60
2023/05/13 00:52:52;;;;;;;;;;;;;;;15.22;94.36;100047.34;5091426;28;19920;-60
2023/05/13 00:55:17;;;;;;;;;;;;;;;15.17;94.74;100054.75;5089969;28;20331;-60
2023/05/13 00:57:42;;;;;;;;;;;;;;;15.13;94.27;100050.50;5091102;28;19931;-60
2023/05/13 01:00:11;;;;;;;;;;;;;;;15.08;94.56;100051.66;5091396;28;20031;-60
2023/05/13 01:02:55;;;;;;;;;;;;;;;15.05;94.60;100054.50;5073270;28;20000;-58
2023/05/13 01:05:29;;;;;;;;;;;;;;;15.10;94.65;100061.38;5078063;28;19920;-58
2023/05/13 01:08:08;;;;;;;;;;;;;;;15.06;94.59;100051.75;5091273;28;19916;-59
2023/05/13 01:10:48;;;;;;;;;;;;;;;15.02;95.38;100058.22;5090430;28;20292;-58
2023/05/13 01:13:17;;;;;;;;;;;;;;;15.02;95.32;100062.69;5071149;28;19923;-59
2023/05/13 01:15:51;;;;;;;;;;;;;;;14.94;94.64;100063.06;5070611;28;20008;-58
2023/05/13 01:18:19;;;;;;;;;;;;;;;14.93;95.98;100063.13;5088046;28;19923;-58
2023/05/13 01:20:44;;;;;;;;;;;;;;;14.95;95.37;100067.50;5090618;28;19981;-58
2023/05/13 01:23:10;;;;;;;;;;;;;;;14.89;95.74;100059.75;5089874;28;20392;-58
2023/05/13 01:25:36;;;;;;;;;;;;;;;14.83;96.36;100065.41;5090838;28;19919;-58
2023/05/13 01:28:01;;;;;;;;;;;;;;;14.88;96.89;100062.50;5088365;28;19920;-58
2023/05/13 01:30:26;;;;;;;;;;;;;;;14.87;96.42;100058.97;5089491;28;19916;-58
2023/05/13 01:32:52;;;;;;;;;;;;;;;14.90;96.92;100069.53;5089302;28;19924;-58
2023/05/13 01:35:19;;;;;;;;;;;;;;;14.88;96.33;100071.41;5090670;28;19916;-58
2023/05/13 01:37:45;;;;;;;;;;;;;;;14.91;95.96;100073.94;5090376;28;19916;-58
2023/05/13 01:40:10;;;;;;;;;;;;;;;14.89;96.70;100072.28;5090494;28;20396;-59
2023/05/13 01:42:36;;;;;;;;;;;;;;;14.86;96.34;100070.59;5089911;28;20456;-58
2023/05/13 01:45:01;;;;;;;;;;;;;;;14.82;95.62;100070.84;5090835;28;19916;-58
2023/05/13 01:47:27;;;;;;;;;;;;;;;14.80;95.09;100076.28;5089822;28;19958;-59
2023/05/13 01:49:52;;;;;;;;;;;;;;;14.84;95.75;100075.19;5090679;28;19923;-59
2023/05/13 01:52:17;;;;;;;;;;;;;;;14.83;95.24;100073.44;5089577;28;20398;-58
2023/05/13 01:54:42;;;;;;;;;;;;;;;14.83;95.28;100078.78;5090790;28;20299;-59
2023/05/13 01:57:08;;;;;;;;;;;;;;;14.83;95.11;100083.28;5090575;28;19957;-59
2023/05/13 01:59:33;;;;;;;;;;;;;;;14.82;94.93;100082.44;5090391;28;19920;-58
2023/05/13 02:01:58;;;;;;;;;;;;;;;14.73;94.91;100090.91;5088441;28;19977;-58
2023/05/13 02:04:24;;;;;;;;;;;;;;;14.69;94.64;100083.97;5088680;28;20038;-59
2023/05/13 02:06:49;;;;;;;;;;;;;;;14.71;95.02;100090.09;5070797;28;19962;-58
2023/05/13 02:09:15;;;;;;;;;;;;;;;14.69;95.03;100083.09;5068754;28;19913;-58
2023/05/13 02:11:40;;;;;;;;;;;;;;;14.66;95.32;100088.59;5076472;28;19942;-59
2023/05/13 02:14:05;;;;;;;;;;;;;;;14.61;96.20;100086.16;5085838;28;19916;-59
2023/05/13 02:16:31;;;;;;;;;;;;;;;14.66;95.49;100091.28;5087473;28;19945;-58
2023/05/13 02:18:56;;;;;;;;;;;;;;;14.65;94.61;100090.41;5087345;28;20411;-59
2023/05/13 02:21:21;;;;;;;;;;;;;;;14.61;94.89;100083.47;5089190;28;19931;-58
2023/05/13 02:23:47;;;;;;;;;;;;;;;14.57;95.09;100079.19;5089478;28;19920;-59
2023/05/13 02:26:12;;;;;;;;;;;;;;;14.51;95.59;100082.16;5088962;28;19923;-59
2023/05/13 02:28:37;;;;;;;;;;;;;;;14.51;95.30;100076.81;5077286;28;20044;-59
2023/05/13 02:31:02;;;;;;;;;;;;;;;14.47;96.02;100080.56;5069472;28;19916;-59
2023/05/13 02:33:28;;;;;;;;;;;;;;;14.47;96.91;100076.09;5086050;28;20496;-58
2023/05/13 02:35:53;;;;;;;;;;;;;;;14.50;96.47;100072.38;5089011;28;19931;-59
2023/05/13 02:38:18;;;;;;;;;;;;;;;14.53;96.09;100069.56;5089658;28;20032;-59
2023/05/13 02:40:43;;;;;;;;;;;;;;;14.55;95.65;100077.53;5088722;28;20348;-59
2023/05/13 02:43:09;;;;;;;;;;;;;;;14.55;95.40;100067.69;5088390;28;19916;-59
2023/05/13 02:45:34;;;;;;;;;;;;;;;14.51;94.72;100071.47;5087611;28;19920;-58
2023/05/13 02:47:59;;;;;;;;;;;;;;;14.43;95.96;100073.63;5088552;28;20582;-58
2023/05/13 02:50:25;;;;;;;;;;;;;;;14.40;94.87;100079.09;5087846;28;19943;-59
2023/05/13 02:52:50;;;;;;;;;;;;;;;14.44;95.87;100080.72;5080509;28;19931;-58
2023/05/13 02:55:16;;;;;;;;;;;;;;;14.43;96.08;100079.00;5069132;28;19917;-58
2023/05/13 02:57:41;;;;;;;;;;;;;;;14.41;95.49;100072.84;5069075;28;19924;-58
2023/05/13 03:00:07;;;;;;;;;;;;;;;14.45;95.39;100071.72;5074906;28;19947;-58
2023/05/13 03:02:33;;;;;;;;;;;;;;;14.40;94.64;100074.63;5089334;28;19923;-58
2023/05/13 03:04:58;;;;;;;;;;;;;;;14.39;95.50;100078.25;5089026;28;19916;-58
2023/05/13 03:07:24;;;;;;;;;;;;;;;14.38;95.19;100075.66;5089199;28;19923;-58
2023/05/13 03:09:49;;;;;;;;;;;;;;;14.32;96.35;100070.56;5088009;28;19927;-57
2023/05/13 03:12:15;;;;;;;;;;;;;;;14.31;96.01;100079.56;5088937;28;19916;-59
2023/05/13 03:14:41;;;;;;;;;;;;;;;14.29;95.88;100086.78;5087180;28;19955;-58
2023/05/13 03:17:07;;;;;;;;;;;;;;;14.26;96.14;100086.94;5090304;28;19916;-59
2023/05/13 03:19:33;;;;;;;;;;;;;;;14.15;97.18;100083.84;5093308;28;19922;-58
2023/05/13 03:21:58;;;;;;;;;;;;;;;14.11;96.88;100079.56;5092445;28;19924;-58
2023/05/13 03:24:23;;;;;;;;;;;;;;;14.18;97.67;100078.34;5093198;28;19916;-58
2023/05/13 03:26:49;;;;;;;;;;;;;;;14.14;97.56;100084.78;5093117;28;19939;-58
2023/05/13 03:29:14;;;;;;;;;;;;;;;14.10;98.49;100085.88;5092809;28;19916;-58
2023/05/13 03:31:40;;;;;;;;;;;;;;;14.07;98.00;100088.66;5091911;28;20015;-58
2023/05/13 03:34:05;;;;;;;;;;;;;;;14.06;98.11;100092.28;5092969;28;19981;-58
2023/05/13 03:36:31;;;;;;;;;;;;;;;14.06;98.64;100105.66;5087494;28;20010;-58
2023/05/13 03:38:56;;;;;;;;;;;;;;;13.96;97.65;100094.50;5093384;28;20643;-58
2023/05/13 03:41:21;;;;;;;;;;;;;;;13.91;99.32;100101.00;5093196;28;20479;-58
2023/05/13 03:43:47;;;;;;;;;;;;;;;13.81;99.01;100100.53;5092922;28;19924;-58
2023/05/13 03:46:12;;;;;;;;;;;;;;;13.74;99.41;100100.91;5092498;28;19912;-58
2023/05/13 03:48:37;;;;;;;;;;;;;;;13.75;100.00;100099.94;5092879;28;20018;-58
2023/05/13 03:51:02;;;;;;;;;;;;;;;13.76;99.90;100110.56;5091176;28;20280;-59
2023/05/13 03:53:28;;;;;;;;;;;;;;;13.73;99.79;100107.16;5091236;28;19959;-58
2023/05/13 03:55:53;;;;;;;;;;;;;;;13.67;99.64;100105.63;5091806;28;20322;-58
2023/05/13 03:58:20;;;;;;;;;;;;;;;13.60;99.80;100111.31;5088352;28;20424;-59
2023/05/13 04:00:46;;;;;;;;;;;;;;;13.57;100.00;100106.09;5088714;28;20408;-59
2023/05/13 04:03:11;;;;;;;;;;;;;;;13.57;100.00;100101.63;5090869;28;19965;-59
2023/05/13 04:05:36;;;;;;;;;;;;;;;13.57;100.00;100108.78;5091234;28;19920;-59
2023/05/13 04:08:02;;;;;;;;;;;;;;;13.58;100.00;100113.16;5092216;28;20022;-59
2023/05/13 04:10:27;;;;;;;;;;;;;;;13.54;100.00;100111.59;5092487;28;20424;-58
2023/05/13 04:12:52;;;;;;;;;;;;;;;13.51;100.00;100106.38;5090935;28;19927;-58
2023/05/13 04:15:18;;;;;;;;;;;;;;;13.49;100.00;100113.56;5092304;28;20617;-58
2023/05/13 04:17:43;;;;;;;;;;;;;;;13.55;100.00;100113.31;5090570;28;19927;-58
2023/05/13 04:20:08;;;;;;;;;;;;;;;13.52;100.00;100121.47;5079576;28;19916;-58
2023/05/13 04:22:34;;;;;;;;;;;;;;;13.56;100.00;100123.94;5092289;28;19920;-58
2023/05/13 04:24:59;;;;;;;;;;;;;;;13.63;100.00;100127.19;5091359;28;19920;-58
2023/05/13 04:27:25;;;;;;;;;;;;;;;13.63;100.00;100129.88;5092198;28;20363;-58
2023/05/13 04:29:50;;;;;;;;;;;;;;;13.63;99.91;100127.19;5091909;28;19916;-58
2023/05/13 04:32:20;;;;;;;;;;;;;;;13.64;99.97;100128.97;5082916;28;19920;-58
2023/05/13 04:34:46;;;;;;;;;;;;;;;13.63;99.64;100132.53;5092099;28;19920;-58
2023/05/13 04:37:11;;;;;;;;;;;;;;;13.63;99.79;100129.88;5091863;28;19923;-58
2023/05/13 04:39:37;;;;;;;;;;;;;;;13.66;99.68;100132.41;5091858;28;20315;-59
2023/05/13 04:42:02;;;;;;;;;;;;;;;13.68;99.48;100135.88;5091035;28;19920;-59
2023/05/13 04:44:27;;;;;;;;;;;;;;;13.71;99.45;100135.75;5091893;28;20339;-59
2023/05/13 04:46:53;;;;;;;;;;;;;;;13.75;99.32;100137.38;5092186;28;20368;-59
2023/05/13 04:49:18;;;;;;;;;;;;;;;13.78;99.23;100131.88;5091550;28;19912;-59
2023/05/13 04:51:43;;;;;;;;;;;;;;;13.78;98.65;100139.91;5090883;28;19920;-59
2023/05/13 04:54:08;;;;;;;;;;;;;;;13.81;99.20;100142.44;5091537;28;19923;-59
2023/05/13 04:56:34;;;;;;;;;;;;;;;13.87;98.55;100142.19;5084373;28;20452;-58
2023/05/13 04:58:59;;;;;;;;;;;;;;;13.89;98.70;100137.63;5091547;28;19989;-58
2023/05/13 05:01:24;;;;;;;;;;;;;;;14.03;98.74;100132.56;5090874;28;19930;-58
2023/05/13 05:03:50;;;;;;;;;;;;;;;14.04;97.52;100142.28;5091249;28;20605;-59
2023/05/13 05:06:15;;;;;;;;;;;;;;;14.10;97.52;100145.56;5090409;28;19923;-59
2023/05/13 05:08:40;;;;;;;;;;;;;;;14.16;97.46;100144.44;5091087;28;19949;-59
2023/05/13 05:11:05;;;;;;;;;;;;;;;14.12;97.19;100145.50;5091357;28;19912;-58
2023/05/13 05:13:31;;;;;;;;;;;;;;;14.16;96.81;100150.66;5090552;28;19926;-58
2023/05/13 05:15:56;;;;;;;;;;;;;;;14.31;96.56;100150.00;5091391;28;19916;-58
2023/05/13 05:18:21;;;;;;;;;;;;;;;14.42;96.30;100152.19;5089863;28;19920;-58
2023/05/13 05:20:47;;;;;;;;;;;;;;;14.53;95.95;100153.41;5091047;28;19924;-58
2023/05/13 05:23:12;;;;;;;;;;;;;;;14.57;94.82;100148.78;5090758;28;20026;-58
2023/05/13 05:25:37;;;;;;;;;;;;;;;14.69;95.23;100150.91;5090382;28;19923;-58
2023/05/13 05:28:04;;;;;;;;;;;;;;;14.85;93.81;100151.91;5090960;28;20338;-58
2023/05/13 05:30:30;;;;;;;;;;;;;;;14.91;93.62;100156.13;5090056;28;19923;-58
2023/05/13 05:32:55;;;;;;;;;;;;;;;14.91;92.52;100158.78;5090761;28;20442;-58
2023/05/13 05:35:20;;;;;;;;;;;;;;;15.08;93.08;100165.06;5091190;28;19966;-58
2023/05/13 05:37:45;;;;;;;;;;;;;;;15.23;91.97;100164.31;5091002;28;19965;-58
2023/05/13 05:40:11;;;;;;;;;;;;;;;15.26;90.65;100169.53;5087656;28;19916;-58
2023/05/13 05:42:36;;;;;;;;;;;;;;;15.38;89.97;100163.56;5088371;28;19924;-58
2023/05/13 05:45:02;;;;;;;;;;;;;;;15.42;89.03;100167.84;5090965;28;19927;-59
2023/05/13 05:47:27;;;;;;;;;;;;;;;15.52;87.93;100171.81;5090210;28;19923;-58
2023/05/13 05:49:52;;;;;;;;;;;;;;;15.71;87.45;100169.94;5090510;28;20403;-59
2023/05/13 05:52:18;;;;;;;;;;;;;;;15.79;87.07;100175.78;5090655;28;19992;-59
2023/05/13 05:54:43;;;;;;;;;;;;;;;15.78;85.85;100179.41;5089668;28;19923;-58
2023/05/13 05:57:08;;;;;;;;;;;;;;;15.82;85.33;100175.63;5090487;28;20276;-58
2023/05/13 05:59:33;;;;;;;;;;;;;;;15.99;85.44;100171.19;5090404;28;19962;-58
2023/05/13 06:01:59;;;;;;;;;;;;;;;16.04;83.69;100166.44;5090323;28;19986;-58
2023/05/13 06:04:24;;;;;;;;;;;;;;;16.17;83.64;100176.47;5089139;28;19927;-58
2023/05/13 06:06:49;;;;;;;;;;;;;;;16.28;83.15;100163.34;5090214;28;19916;-58
2023/05/13 06:09:15;;;;;;;;;;;;;;;16.40;82.37;100175.25;5090189;28;19919;-58
2023/05/13 06:11:40;;;;;;;;;;;;;;;16.49;80.79;100164.91;5089667;28;19916;-59
2023/05/13 06:14:05;;;;;;;;;;;;;;;16.74;80.21;100169.78;5089204;28;19923;-58
2023/05/13 06:16:30;;;;;;;;;;;;;;;16.82;81.11;100170.22;5079948;28;19927;-59
2023/05/13 06:18:56;;;;;;;;;;;;;;;16.97;79.81;100174.75;5070469;28;19999;-58
2023/05/13 06:21:21;;;;;;;;;;;;;;;16.96;78.93;100178.41;5073349;28;19920;-59
2023/05/13 06:23:46;;;;;;;;;;;;;;;16.82;77.67;100179.16;5090312;28;19920;-59
2023/05/13 06:26:11;;;;;;;;;;;;;;;16.85;77.97;100186.22;5087758;28;19958;-59
2023/05/13 06:28:37;;;;;;;;;;;;;;;16.85;76.48;100176.31;5089818;28;19934;-58
2023/05/13 06:31:02;;;;;;;;;;;;;;;16.92;75.80;100187.56;5081638;28;19923;-58
2023/05/13 06:33:27;;;;;;;;;;;;;;;17.23;77.76;100184.94;5086006;28;20019;-59
2023/05/13 06:35:53;;;;;;;;;;;;;;;17.41;75.62;100181.19;5089865;28;19912;-58
2023/05/13 06:38:18;;;;;;;;;;;;;;;17.46;75.32;100184.47;5089169;28;19916;-59
2023/05/13 06:40:44;;;;;;;;;;;;;;;17.62;74.30;100179.97;5089894;28;20381;-59
2023/05/13 06:43:11;;;;;;;;;;;;;;;17.76;73.48;100185.38;5090461;28;19912;-59
2023/05/13 06:45:36;;;;;;;;;;;;;;;17.87;70.78;100191.03;5085477;28;19938;-59
2023/05/13 06:48:02;;;;;;;;;;;;;;;17.71;71.22;100178.56;5074020;28;19920;-58
2023/05/13 06:50:27;;;;;;;;;;;;;;;17.81;71.99;100188.66;5088928;28;19920;-59
2023/05/13 06:52:52;;;;;;;;;;;;;;;18.10;72.11;100187.78;5091220;28;19995;-59
2023/05/13 06:55:18;;;;;;;;;;;;;;;18.21;69.31;100179.94;5090939;28;20422;-59
2023/05/13 06:57:46;;;;;;;;;;;;;;;18.35;68.59;100182.63;5084292;28;19947;-59
2023/05/13 07:00:12;;;;;;;;;;;;;;;18.58;67.79;100188.47;5087246;28;19966;-58
2023/05/13 07:02:38;;;;;;;;;;;;;;;18.83;nan;100183.28;5088041;28;19967;-58
2023/05/13 07:05:03;;;;;;;;;;;;;;;18.94;66.69;100191.53;5091716;28;20010;-58
2023/05/13 07:07:29;;;;;;;;;;;;;;;19.05;64.50;100183.63;5092707;28;19916;-58
2023/05/13 07:09:54;;;;;;;;;;;;;;;19.13;64.78;100190.25;5091999;28;19942;-58
2023/05/13 07:12:19;;;;;;;;;;;;;;;19.32;64.35;100180.00;5093443;28;19961;-58
2023/05/13 07:14:45;;;;;;;;;;;;;;;19.50;65.51;100183.34;5093515;28;19919;-58
2023/05/13 07:17:10;;;;;;;;;;;;;;;19.73;65.32;100198.00;5093067;28;19916;-58
2023/05/13 07:19:35;;;;;;;;;;;;;;;19.88;62.69;100192.44;5092786;28;19927;-58
2023/05/13 07:22:01;;;;;;;;;;;;;;;19.63;61.59;100187.84;5093496;28;19920;-59
2023/05/13 07:24:26;;;;;;;;;;;;;;;19.58;64.13;100183.72;5093493;28;20429;-59
2023/05/13 07:26:51;;;;;;;;;;;;;;;19.57;61.78;100185.53;5092656;28;19919;-59
2023/05/13 07:29:17;;;;;;;;;;;;;;;19.80;60.21;100189.41;5093683;28;19920;-58
2023/05/13 07:31:42;;;;;;;;;;;;;;;19.99;61.09;100181.78;5093520;28;20061;-58
2023/05/13 07:34:07;;;;;;;;;;;;;;;20.25;59.34;100188.97;5093514;28;19916;-58
2023/05/13 07:36:32;;;;;;;;;;;;;;;20.57;58.56;100187.59;5092001;28;19959;-58
2023/05/13 07:38:58;;;;;;;;;;;;;;;21.18;59.08;100185.91;5093186;28;20383;-59
2023/05/13 07:41:23;;;;;;;;;;;;;;;21.59;57.53;100183.72;5092991;28;19963;-59
2023/05/13 07:43:48;;;;;;;;;;;;;;;21.73;54.60;100191.66;5093076;28;19912;-59
2023/05/13 07:46:14;;;;;;;;;;;;;;;21.78;53.42;100189.47;5083028;28;19923;-58
2023/05/13 07:48:39;;;;;;;;;;;;;;;22.07;52.12;100196.28;5092035;28;19951;-58
2023/05/13 07:51:05;;;;;;;;;;;;;;;22.33;51.65;100191.53;5092269;28;19916;-59
2023/05/13 07:53:30;;;;;;;;;;;;;;;22.39;49.92;100189.19;5091275;28;19920;-59
2023/05/13 07:55:55;;;;;;;;;;;;;;;22.71;50.49;100193.00;5091949;28;20299;-58
2023/05/13 07:58:21;;;;;;;;;;;;;;;22.41;51.59;100189.06;5091844;28;20008;-59
2023/05/13 08:00:48;;;;;;;;;;;;;;;22.60;50.74;100190.25;5084415;28;19938;-59
2023/05/13 08:03:14;;;;;;;;;;;;;;;23.06;51.18;100182.88;5071581;28;19916;-58
2023/05/13 08:05:40;;;;;;;;;;;;;;;23.11;48.96;100188.78;5079155;28;19927;-58
2023/05/13 08:08:05;;;;;;;;;;;;;;;23.27;48.50;100191.16;5091063;28;19920;-58
2023/05/13 08:10:30;;;;;;;;;;;;;;;23.35;47.98;100194.97;5091629;28;19937;-59
2023/05/13 08:12:56;;;;;;;;;;;;;;;23.14;50.36;100190.41;5090775;28;19920;-59
2023/05/13 08:15:21;;;;;;;;;;;;;;;23.00;47.43;100194.22;5091481;28;19966;-59
2023/05/13 08:17:47;;;;;;;;;;;;;;;22.99;49.21;100192.50;5092213;28;20525;-59
2023/05/13 08:20:14;;;;;;;;;;;;;;;22.89;50.12;100199.66;5091783;28;19908;-59
2023/05/13 08:22:39;;;;;;;;;;;;;;;22.43;49.54;100193.41;5085794;28;19921;-58
2023/05/13 08:25:04;;;;;;;;;;;;;;;21.88;52.11;100190.50;5090584;28;19939;-58
2023/05/13 08:27:30;;;;;;;;;;;;;;;21.53;51.45;100190.44;5080148;28;20398;-58
2023/05/13 08:29:55;;;;;;;;;;;;;;;21.10;52.27;100191.03;5091675;28;20021;-59
2023/05/13 08:32:20;;;;;;;;;;;;;;;21.10;54.80;100191.91;5092160;28;19924;-59
2023/05/13 08:34:45;;;;;;;;;;;;;;;20.62;53.74;100201.66;5091361;28;19916;-59
2023/05/13 08:37:11;;;;;;;;;;;;;;;20.52;53.97;100202.41;5091825;28;20439;-59
2023/05/13 08:39:37;;;;;;;;;;;;;;;20.61;54.40;100190.91;5092248;28;19916;-59
2023/05/13 08:42:03;;;;;;;;;;;;;;;20.65;54.99;100196.03;5091187;28;20042;-58
2023/05/13 08:44:28;;;;;;;;;;;;;;;20.55;55.64;100199.47;5091927;28;20440;-59
2023/05/13 08:47:03;;;;;;;;;;;;;;;20.53;55.04;100201.41;5090985;28;19920;-58
2023/05/13 08:49:28;;;;;;;;;;;;;;;20.30;55.70;100192.22;5091066;28;20390;-58
2023/05/13 08:51:54;;;;;;;;;;;;;;;20.22;56.47;100201.81;5091494;28;19916;-58
2023/05/13 08:54:19;;;;;;;;;;;;;;;20.39;56.72;100198.81;5091157;28;20347;-58
2023/05/13 08:56:44;;;;;;;;;;;;;;;20.51;53.84;100195.28;5091894;28;19912;-58
2023/05/13 08:59:10;;;;;;;;;;;;;;;20.67;54.78;100199.47;5090541;28;20060;-58
2023/05/13 09:01:36;;;;;;;;;;;;;;;20.65;55.99;100201.44;5091130;28;19920;-58
2023/05/13 09:04:05;;;;;;;;;;;;;;;20.59;57.74;100209.94;5091532;28;20466;-59
2023/05/13 09:06:31;;;;;;;;;;;;;;;20.74;54.60;100211.56;5075892;28;19923;-59
2023/05/13 09:08:56;;;;;;;;;;;;;;;20.69;55.56;100213.75;5080544;28;19924;-58
2023/05/13 09:11:22;;;;;;;;;;;;;;;20.54;55.91;100203.16;5091442;28;19923;-59
2023/05/13 09:13:57;;;;;;;;;;;;;;;20.67;55.75;100210.28;5090490;28;19920;-58
2023/05/13 09:16:22;;;;;;;;;;;;;;;20.53;56.48;100206.81;5070682;28;19917;-58
2023/05/13 09:18:48;;;;;;;;;;;;;;;20.26;56.57;100206.91;5087515;28;19966;-58
2023/05/13 09:21:23;;;;;;;;;;;;;;;20.19;59.25;100207.44;5091553;28;19924;-58
2023/05/13 09:23:49;;;;;;;;;;;;;;;19.99;57.09;100211.47;5091441;28;20348;-58
2023/05/13 09:26:27;;;;;;;;;;;;;;;20.10;57.82;100208.91;5090330;28;19912;-58
2023/05/13 09:29:12;;;;;;;;;;;;;;;20.08;57.25;100210.84;5090693;28;19939;-58
2023/05/13 09:31:37;;;;;;;;;;;;;;;20.26;59.51;100211.47;5089424;28;19924;-58
2023/05/13 09:34:03;;;;;;;;;;;;;;;20.31;57.96;100214.72;5091053;28;19912;-59
2023/05/13 09:36:28;;;;;;;;;;;;;;;20.26;57.79;100211.47;5091053;28;19916;-58
2023/05/13 09:38:54;;;;;;;;;;;;;;;20.09;58.85;100217.97;5090140;28;19920;-58
2023/05/13 09:41:19;;;;;;;;;;;;;;;20.27;58.18;100216.75;5091143;28;19923;-59
2023/05/13 09:43:46;;;;;;;;;;;;;;;20.27;59.19;100210.47;5088763;28;20400;-58
2023/05/13 09:46:11;;;;;;;;;;;;;;;20.24;58.58;100216.97;5071517;28;19916;-58
2023/05/13 09:48:41;;;;;;;;;;;;;;;20.41;61.23;100213.09;5070550;28;20587;-58
2023/05/13 09:51:07;;;;;;;;;;;;;;;20.46;60.91;100214.50;5070556;28;19913;-58
2023/05/13 09:53:32;;;;;;;;;;;;;;;20.23;57.92;100209.81;5087922;28;20399;-58
2023/05/13 09:55:59;;;;;;;;;;;;;;;20.29;60.28;100208.53;5091024;28;19970;-58
2023/05/13 09:58:27;;;;;;;;;;;;;;;20.08;60.09;100213.53;5089581;28;20464;-58
2023/05/13 10:00:52;;;;;;;;;;;;;;;20.29;60.74;100212.13;5090266;28;20406;-59
2023/05/13 10:03:20;;;;;;;;;;;;;;;20.27;59.64;100211.34;5089416;28;21623;-59
2023/05/13 10:05:47;;;;;;;;;;;;;;;20.07;57.98;100214.53;5089267;28;20431;-59
2023/05/13 10:08:14;;;;;;;;;;;;;;;20.28;59.89;100214.94;5089577;28;20368;-59
2023/05/13 10:10:40;;;;;;;;;;;;;;;20.18;60.23;100213.81;5090229;28;19970;-59
2023/05/13 10:13:07;;;;;;;;;;;;;;;20.25;58.31;100210.59;5089303;28;20537;-58
2023/05/13 10:15:33;;;;;;;;;;;;;;;20.31;57.99;100209.31;5090298;28;19912;-59
2023/05/13 10:17:59;;;;;;;;;;;;;;;20.41;59.46;100208.53;5089928;28;19919;-59
2023/05/13 10:20:27;;;;;;;;;;;;;;;20.42;58.32;100215.69;5090303;28;19973;-59
2023/05/13 10:22:53;;;;;;;;;;;;;;;20.18;56.33;100211.97;5090258;28;19935;-59
2023/05/13 10:25:18;;;;;;;;;;;;;;;20.36;57.24;100210.69;5078658;28;19925;-59
2023/05/13 10:27:44;;;;;;;;;;;;;;;20.25;58.03;100216.00;5073520;28;20295;-59
2023/05/13 10:30:09;;;;;;;;;;;;;;;20.10;58.63;100219.69;5082406;28;20279;-59
2023/05/13 10:32:36;;;;;;;;;;;;;;;20.11;58.74;100216.06;5087037;28;19916;-59
2023/05/13 10:35:12;;;;;;;;;;;;;;;20.07;57.04;100219.91;5079467;28;20380;-59
2023/05/13 10:37:46;;;;;;;;;;;;;;;20.17;58.92;100226.47;5089191;28;20437;-59
2023/05/13 10:40:28;;;;;;;;;;;;;;;20.10;56.59;100221.56;5076038;28;19951;-60
2023/05/13 10:43:00;;;;;;;;;;;;;;;19.99;56.77;100216.88;5083111;28;20019;-58
2023/05/13 10:45:26;;;;;;;;;;;;;;;20.22;58.10;100215.34;5073720;28;20411;-58
2023/05/13 10:47:53;;;;;;;;;;;;;;;20.40;57.26;100200.53;5069182;28;19913;-58
2023/05/13 10:50:25;;;;;;;;;;;;;;;20.72;57.70;100208.13;5076908;28;19935;-58
2023/05/13 10:52:54;;;;;;;;;;;;;;;20.85;56.06;100209.00;5089237;28;19955;-58
2023/05/13 10:55:19;;;;;;;;;;;;;;;20.89;55.81;100205.09;5089267;28;19965;-58
2023/05/13 10:58:04;;;;;;;;;;;;;;;20.80;55.93;100211.16;5075942;28;19924;-59
2023/05/13 11:00:30;;;;;;;;;;;;;;;20.80;56.47;100216.56;5069393;28;20015;-59
2023/05/13 11:02:55;;;;;;;;;;;;;;;20.80;55.01;100221.09;5069547;28;20734;-59
2023/05/13 11:05:20;;;;;;;;;;;;;;;20.78;57.33;100217.63;5075541;28;19941;-59
2023/05/13 11:07:55;;;;;;;;;;;;;;;20.98;56.69;100209.00;5088200;28;19924;-59
2023/05/13 11:10:25;;;;;;;;;;;;;;;20.93;54.46;100220.13;5069171;28;19923;-59
2023/05/13 11:13:05;;;;;;;;;;;;;;;20.90;55.24;100205.97;5071423;28;19969;-59
2023/05/13 11:16:03;;;;;;;;;;;;;;;20.77;55.26;100207.81;5071570;28;20598;-59
2023/05/13 11:18:29;;;;;;;;;;;;;;;20.65;56.04;100201.44;5035544;28;20727;-59
2023/05/13 11:20:55;;;;;;;;;;;;;;;20.82;55.94;100203.78;5069265;28;19920;-59
2023/05/13 11:23:20;;;;;;;;;;;;;;;21.15;56.03;100205.06;5068488;28;20426;-59
2023/05/13 11:25:46;;;;;;;;;;;;;;;21.36;56.29;100203.50;5078361;28;19916;-59
2023/05/13 11:28:15;;;;;;;;;;;;;;;21.42;55.04;100203.91;5089746;28;19927;-59
2023/05/13 11:30:51;;;;;;;;;;;;;;;21.48;53.42;100199.88;5084065;28;19922;-59
2023/05/13 11:33:17;;;;;;;;;;;;;;;21.76;53.86;100197.72;5070945;28;19966;-59
2023/05/13 11:35:52;;;;;;;;;;;;;;;21.88;53.65;100202.22;5083617;28;19920;-59
2023/05/13 11:38:21;;;;;;;;;;;;;;;21.90;52.65;100193.97;5089766;28;19924;-59
2023/05/13 11:40:46;;;;;;;;;;;;;;;21.69;51.14;100196.44;5091494;28;20279;-59
2023/05/13 11:43:17;;;;;;;;;;;;;;;21.85;50.79;100196.16;5089319;28;19920;-59
2023/05/13 11:45:43;;;;;;;;;;;;;;;21.83;51.74;100196.28;5090262;28;19950;-59
2023/05/13 11:48:21;;;;;;;;;;;;;;;21.69;52.93;100201.00;5075474;28;20399;-59
2023/05/13 11:50:48;;;;;;;;;;;;;;;21.53;51.02;100206.66;5087835;28;19920;-59
2023/05/13 11:53:18;;;;;;;;;;;;;;;21.56;52.07;100200.19;5083862;28;20003;-59
2023/05/13 11:55:43;;;;;;;;;;;;;;;21.54;53.89;100202.13;5086950;28;20014;-59
2023/05/13 11:58:12;;;;;;;;;;;;;;;21.44;50.36;100201.97;5084347;28;19938;-59
2023/05/13 12:00:37;;;;;;;;;;;;;;;21.38;51.91;100209.66;5092217;28;19925;-59
2023/05/13 12:03:08;;;;;;;;;;;;;;;21.22;50.86;100211.78;5092378;28;19969;-58
2023/05/13 12:05:33;;;;;;;;;;;;;;;21.25;52.08;100208.84;5083812;28;20440;-58
2023/05/13 12:07:58;;;;;;;;;;;;;;;21.07;52.60;100207.47;5083241;28;20006;-59
2023/05/13 12:10:24;;;;;;;;;;;;;;;21.08;52.10;100198.38;5092271;28;19954;-59
2023/05/13 12:12:50;;;;;;;;;;;;;;;21.34;50.87;100194.63;5092285;28;19916;-59
2023/05/13 12:15:16;;;;;;;;;;;;;;;21.50;51.28;100200.66;5092308;28;20072;-59
2023/05/13 12:17:42;;;;;;;;;;;;;;;21.39;50.83;100203.25;5085569;28;19920;-59
2023/05/13 12:20:08;;;;;;;;;;;;;;;21.37;50.55;100202.50;5082452;28;19920;-59
2023/05/13 12:22:34;;;;;;;;;;;;;;;21.34;50.80;100205.44;5079297;28;19980;-59
2023/05/13 12:25:01;;;;;;;;;;;;;;;21.57;50.02;100201.91;5075138;28;19916;-60
2023/05/13 12:27:26;;;;;;;;;;;;;;;21.91;52.02;100203.84;5091454;28;20362;-59
2023/05/13 12:29:55;;;;;;;;;;;;;;;21.90;50.38;100207.53;5088696;28;20000;-59
2023/05/13 12:32:20;;;;;;;;;;;;;;;22.00;50.17;100193.16;5088298;28;20019;-59